sensor_id;sensor_type;location;lat;lon;timestamp;temperature;humidity
37642;DHT22;23486;51.956;5.888;2023-12-04T00:00:24;1.50;99.90
37642;DHT22;23486;51.956;5.888;2023-12-04T00:02:50;1.50;99.90
37642;DHT22;23486;51.956;5.888;2023-12-04T00:05:16;1.50;99.90
37642;DHT22;23486;51.956;5.888;2023-12-04T00:07:41;1.50;99.90
37642;DHT22;23486;51.956;5.888;2023-12-04T00:10:07;1.50;99.90
37642;DHT22;23486;51.956;5.888;2023-12-04T00:12:33;1.50;99.90
37642;DHT22;23486;51.956;5.888;2023-12-04T00:14:59;1.50;99.90
37642;DHT22;23486;51.956;5.888;2023-12-04T00:17:24;1.50;99.90
37642;DHT22;23486;51.956;5.888;2023-12-04T00:19:50;1.50;99.90
37642;DHT22;23486;51.956;5.888;2023-12-04T00:22:16;1.50;99.90
37642;DHT22;23486;51.956;5.888;2023-12-04T00:24:41;1.50;99.90
37642;DHT22;23486;51.956;5.888;2023-12-04T00:27:07;1.50;99.90
37642;DHT22;23486;51.956;5.888;2023-12-04T00:29:33;1.40;99.90
37642;DHT22;23486;51.956;5.888;2023-12-04T00:31:58;1.40;99.90
37642;DHT22;23486;51.956;5.888;2023-12-04T00:34:24;1.40;99.90
37642;DHT22;23486;51.956;5.888;2023-12-04T00:36:49;1.50;99.90
37642;DHT22;23486;51.956;5.888;2023-12-04T00:39:15;1.50;99.90
37642;DHT22;23486;51.956;5.888;2023-12-04T00:41:41;1.50;99.90
37642;DHT22;23486;51.956;5.888;2023-12-04T00:44:07;1.50;99.90
37642;DHT22;23486;51.956;5.888;2023-12-04T00:46:32;1.50;99.90
37642;DHT22;23486;51.956;5.888;2023-12-04T00:48:58;1.50;99.90
37642;DHT22;23486;51.956;5.888;2023-12-04T00:51:23;1.50;99.90
37642;DHT22;23486;51.956;5.888;2023-12-04T00:53:49;1.60;99.90
37642;DHT22;23486;51.956;5.888;2023-12-04T00:56:15;1.60;99.90
37642;DHT22;23486;51.956;5.888;2023-12-04T00:58:40;1.60;99.90
37642;DHT22;23486;51.956;5.888;2023-12-04T01:01:06;1.60;99.90
37642;DHT22;23486;51.956;5.888;2023-12-04T01:03:31;1.50;99.90
37642;DHT22;23486;51.956;5.888;2023-12-04T01:05:59;1.50;99.90
37642;DHT22;23486;51.956;5.888;2023-12-04T01:08:24;1.50;99.90
37642;DHT22;23486;51.956;5.888;2023-12-04T01:10:50;1.50;99.90
37642;DHT22;23486;51.956;5.888;2023-12-04T01:13:16;1.50;99.90
37642;DHT22;23486;51.956;5.888;2023-12-04T01:15:41;1.50;99.90
37642;DHT22;23486;51.956;5.888;2023-12-04T01:18:08;1.50;99.90
37642;DHT22;23486;51.956;5.888;2023-12-04T01:20:34;1.50;99.90
37642;DHT22;23486;51.956;5.888;2023-12-04T01:22:59;1.50;99.90
37642;DHT22;23486;51.956;5.888;2023-12-04T01:25:25;1.50;99.90
37642;DHT22;23486;51.956;5.888;2023-12-04T01:27:51;1.50;99.90
37642;DHT22;23486;51.956;5.888;2023-12-04T01:30:16;1.50;99.90
37642;DHT22;23486;51.956;5.888;2023-12-04T01:32:42;1.50;99.90
37642;DHT22;23486;51.956;5.888;2023-12-04T01:35:08;1.50;99.90
37642;DHT22;23486;51.956;5.888;2023-12-04T01:37:33;1.50;99.90
37642;DHT22;23486;51.956;5.888;2023-12-04T01:39:59;1.50;99.90
37642;DHT22;23486;51.956;5.888;2023-12-04T01:42:24;1.50;99.90
37642;DHT22;23486;51.956;5.888;2023-12-04T01:44:50;1.50;99.90
37642;DHT22;23486;51.956;5.888;2023-12-04T01:47:16;1.50;99.90
37642;DHT22;23486;51.956;5.888;2023-12-04T01:49:43;1.50;99.90
37642;DHT22;23486;51.956;5.888;2023-12-04T01:52:09;1.50;99.90
37642;DHT22;23486;51.956;5.888;2023-12-04T01:54:35;1.50;99.90
37642;DHT22;23486;51.956;5.888;2023-12-04T01:57:02;1.50;99.90
37642;DHT22;23486;51.956;5.888;2023-12-04T01:59:28;1.50;99.90
37642;DHT22;23486;51.956;5.888;2023-12-04T02:01:54;1.50;99.90
37642;DHT22;23486;51.956;5.888;2023-12-04T02:04:20;1.50;99.90
37642;DHT22;23486;51.956;5.888;2023-12-04T02:06:46;1.50;99.90
37642;DHT22;23486;51.956;5.888;2023-12-04T02:09:12;1.50;99.90
37642;DHT22;23486;51.956;5.888;2023-12-04T02:11:38;1.40;99.90
37642;DHT22;23486;51.956;5.888;2023-12-04T02:14:05;1.40;99.90
37642;DHT22;23486;51.956;5.888;2023-12-04T02:16:32;1.40;99.90
37642;DHT22;23486;51.956;5.888;2023-12-04T02:19:01;1.40;99.90
37642;DHT22;23486;51.956;5.888;2023-12-04T02:21:28;1.40;99.90
37642;DHT22;23486;51.956;5.888;2023-12-04T02:23:56;1.40;99.90
37642;DHT22;23486;51.956;5.888;2023-12-04T02:26:28;1.40;99.90
37642;DHT22;23486;51.956;5.888;2023-12-04T02:28:58;1.30;99.90
37642;DHT22;23486;51.956;5.888;2023-12-04T02:31:24;1.30;99.90
37642;DHT22;23486;51.956;5.888;2023-12-04T02:33:53;1.30;99.90
37642;DHT22;23486;51.956;5.888;2023-12-04T02:36:23;1.30;99.90
37642;DHT22;23486;51.956;5.888;2023-12-04T02:38:50;1.30;99.90
37642;DHT22;23486;51.956;5.888;2023-12-04T02:41:15;1.30;99.90
37642;DHT22;23486;51.956;5.888;2023-12-04T02:43:42;1.30;99.90
37642;DHT22;23486;51.956;5.888;2023-12-04T02:46:08;1.30;99.90
37642;DHT22;23486;51.956;5.888;2023-12-04T02:48:33;1.30;99.90
37642;DHT22;23486;51.956;5.888;2023-12-04T02:50:59;1.30;99.90
37642;DHT22;23486;51.956;5.888;2023-12-04T02:53:24;1.30;99.90
37642;DHT22;23486;51.956;5.888;2023-12-04T02:55:50;1.30;99.90
37642;DHT22;23486;51.956;5.888;2023-12-04T02:58:15;1.30;99.90
37642;DHT22;23486;51.956;5.888;2023-12-04T03:00:41;1.30;99.90
37642;DHT22;23486;51.956;5.888;2023-12-04T03:03:06;1.40;99.90
37642;DHT22;23486;51.956;5.888;2023-12-04T03:05:32;1.30;99.90
37642;DHT22;23486;51.956;5.888;2023-12-04T03:07:57;1.30;99.90
37642;DHT22;23486;51.956;5.888;2023-12-04T03:10:23;1.40;99.90
37642;DHT22;23486;51.956;5.888;2023-12-04T03:12:48;1.30;99.90
37642;DHT22;23486;51.956;5.888;2023-12-04T03:15:14;1.40;99.90
37642;DHT22;23486;51.956;5.888;2023-12-04T03:17:40;1.40;99.90
37642;DHT22;23486;51.956;5.888;2023-12-04T03:20:05;1.40;99.90
37642;DHT22;23486;51.956;5.888;2023-12-04T03:22:34;1.40;99.90
37642;DHT22;23486;51.956;5.888;2023-12-04T03:25:00;1.40;99.90
37642;DHT22;23486;51.956;5.888;2023-12-04T03:27:25;1.40;99.90
37642;DHT22;23486;51.956;5.888;2023-12-04T03:29:51;1.50;99.90
37642;DHT22;23486;51.956;5.888;2023-12-04T03:32:16;1.50;99.90
37642;DHT22;23486;51.956;5.888;2023-12-04T03:34:42;1.50;99.90
37642;DHT22;23486;51.956;5.888;2023-12-04T03:37:08;1.50;99.90
37642;DHT22;23486;51.956;5.888;2023-12-04T03:39:33;1.50;99.90
37642;DHT22;23486;51.956;5.888;2023-12-04T03:41:59;1.50;99.90
37642;DHT22;23486;51.956;5.888;2023-12-04T03:44:25;1.50;99.90
37642;DHT22;23486;51.956;5.888;2023-12-04T03:46:50;1.40;99.90
37642;DHT22;23486;51.956;5.888;2023-12-04T03:49:17;1.50;99.90
37642;DHT22;23486;51.956;5.888;2023-12-04T03:51:42;1.40;99.90
37642;DHT22;23486;51.956;5.888;2023-12-04T03:54:08;1.40;99.90
37642;DHT22;23486;51.956;5.888;2023-12-04T03:56:34;1.40;99.90
37642;DHT22;23486;51.956;5.888;2023-12-04T03:58:59;1.40;99.90
37642;DHT22;23486;51.956;5.888;2023-12-04T04:01:25;1.40;99.90
37642;DHT22;23486;51.956;5.888;2023-12-04T04:03:50;1.30;99.90
37642;DHT22;23486;51.956;5.888;2023-12-04T04:06:16;1.30;99.90
37642;DHT22;23486;51.956;5.888;2023-12-04T04:08:42;1.30;99.90
37642;DHT22;23486;51.956;5.888;2023-12-04T04:11:08;1.30;99.90
37642;DHT22;23486;51.956;5.888;2023-12-04T04:13:33;1.20;99.90
37642;DHT22;23486;51.956;5.888;2023-12-04T04:15:59;1.30;99.90
37642;DHT22;23486;51.956;5.888;2023-12-04T04:18:24;1.20;99.90
37642;DHT22;23486;51.956;5.888;2023-12-04T04:20:50;1.20;99.90
37642;DHT22;23486;51.956;5.888;2023-12-04T04:23:15;1.20;99.90
37642;DHT22;23486;51.956;5.888;2023-12-04T04:25:41;1.20;99.90
37642;DHT22;23486;51.956;5.888;2023-12-04T04:28:06;1.20;99.90
37642;DHT22;23486;51.956;5.888;2023-12-04T04:30:32;1.20;99.90
37642;DHT22;23486;51.956;5.888;2023-12-04T04:32:58;1.20;99.90
37642;DHT22;23486;51.956;5.888;2023-12-04T04:35:23;1.20;99.90
37642;DHT22;23486;51.956;5.888;2023-12-04T04:37:49;1.20;99.90
37642;DHT22;23486;51.956;5.888;2023-12-04T04:40:14;1.10;99.90
37642;DHT22;23486;51.956;5.888;2023-12-04T04:42:40;1.20;99.90
37642;DHT22;23486;51.956;5.888;2023-12-04T04:45:06;1.20;99.90
37642;DHT22;23486;51.956;5.888;2023-12-04T04:47:31;1.20;99.90
37642;DHT22;23486;51.956;5.888;2023-12-04T04:49:57;1.20;99.90
37642;DHT22;23486;51.956;5.888;2023-12-04T04:52:23;1.20;99.90
37642;DHT22;23486;51.956;5.888;2023-12-04T04:54:48;1.20;99.90
37642;DHT22;23486;51.956;5.888;2023-12-04T04:57:14;1.20;99.90
37642;DHT22;23486;51.956;5.888;2023-12-04T04:59:39;1.20;99.90
37642;DHT22;23486;51.956;5.888;2023-12-04T05:02:05;1.20;99.90
37642;DHT22;23486;51.956;5.888;2023-12-04T05:04:30;1.20;99.90
37642;DHT22;23486;51.956;5.888;2023-12-04T05:06:56;1.20;99.90
37642;DHT22;23486;51.956;5.888;2023-12-04T05:09:21;1.20;99.90
37642;DHT22;23486;51.956;5.888;2023-12-04T05:11:47;1.20;99.90
37642;DHT22;23486;51.956;5.888;2023-12-04T05:14:12;1.20;99.90
37642;DHT22;23486;51.956;5.888;2023-12-04T05:16:38;1.20;99.90
37642;DHT22;23486;51.956;5.888;2023-12-04T05:19:03;1.20;99.90
37642;DHT22;23486;51.956;5.888;2023-12-04T05:21:29;1.20;99.90
37642;DHT22;23486;51.956;5.888;2023-12-04T05:23:55;1.20;99.90
37642;DHT22;23486;51.956;5.888;2023-12-04T05:26:20;1.20;99.90
37642;DHT22;23486;51.956;5.888;2023-12-04T05:28:46;1.20;99.90
37642;DHT22;23486;51.956;5.888;2023-12-04T05:31:11;1.20;99.90
37642;DHT22;23486;51.956;5.888;2023-12-04T05:33:37;1.20;99.90
37642;DHT22;23486;51.956;5.888;2023-12-04T05:36:03;1.20;99.90
37642;DHT22;23486;51.956;5.888;2023-12-04T05:38:29;1.20;99.90
37642;DHT22;23486;51.956;5.888;2023-12-04T05:40:54;1.10;99.90
37642;DHT22;23486;51.956;5.888;2023-12-04T05:43:20;1.20;99.90
37642;DHT22;23486;51.956;5.888;2023-12-04T05:45:45;1.20;99.90
37642;DHT22;23486;51.956;5.888;2023-12-04T05:48:11;1.20;99.90
37642;DHT22;23486;51.956;5.888;2023-12-04T05:50:37;1.10;99.90
37642;DHT22;23486;51.956;5.888;2023-12-04T05:53:02;1.10;99.90
37642;DHT22;23486;51.956;5.888;2023-12-04T05:55:28;1.20;99.90
37642;DHT22;23486;51.956;5.888;2023-12-04T05:57:53;1.20;99.90
37642;DHT22;23486;51.956;5.888;2023-12-04T06:00:19;1.20;99.90
37642;DHT22;23486;51.956;5.888;2023-12-04T06:02:45;1.20;99.90
37642;DHT22;23486;51.956;5.888;2023-12-04T06:05:11;1.20;99.90
37642;DHT22;23486;51.956;5.888;2023-12-04T06:07:37;1.20;99.90
37642;DHT22;23486;51.956;5.888;2023-12-04T06:10:03;1.20;99.90
37642;DHT22;23486;51.956;5.888;2023-12-04T06:12:32;1.20;99.90
37642;DHT22;23486;51.956;5.888;2023-12-04T06:14:57;1.30;99.90
37642;DHT22;23486;51.956;5.888;2023-12-04T06:17:26;1.20;99.90
37642;DHT22;23486;51.956;5.888;2023-12-04T06:19:53;1.30;99.90
37642;DHT22;23486;51.956;5.888;2023-12-04T06:22:18;1.30;99.90
37642;DHT22;23486;51.956;5.888;2023-12-04T06:24:50;1.30;99.90
37642;DHT22;23486;51.956;5.888;2023-12-04T06:27:17;1.30;99.90
37642;DHT22;23486;51.956;5.888;2023-12-04T06:29:47;1.30;99.90
37642;DHT22;23486;51.956;5.888;2023-12-04T06:32:14;1.30;99.90
37642;DHT22;23486;51.956;5.888;2023-12-04T06:34:40;1.30;99.90
37642;DHT22;23486;51.956;5.888;2023-12-04T06:37:12;1.30;99.90
37642;DHT22;23486;51.956;5.888;2023-12-04T06:39:39;1.30;99.90
37642;DHT22;23486;51.956;5.888;2023-12-04T06:42:06;1.30;99.90
37642;DHT22;23486;51.956;5.888;2023-12-04T06:44:32;1.30;99.90
37642;DHT22;23486;51.956;5.888;2023-12-04T06:47:00;1.30;99.90
37642;DHT22;23486;51.956;5.888;2023-12-04T06:49:30;1.30;99.90
37642;DHT22;23486;51.956;5.888;2023-12-04T06:51:56;1.40;99.90
37642;DHT22;23486;51.956;5.888;2023-12-04T06:54:21;1.40;99.90
37642;DHT22;23486;51.956;5.888;2023-12-04T06:56:47;1.40;99.90
37642;DHT22;23486;51.956;5.888;2023-12-04T06:59:13;1.40;99.90
37642;DHT22;23486;51.956;5.888;2023-12-04T07:01:38;1.40;99.90
37642;DHT22;23486;51.956;5.888;2023-12-04T07:04:04;1.40;99.90
37642;DHT22;23486;51.956;5.888;2023-12-04T07:06:35;1.40;99.90
37642;DHT22;23486;51.956;5.888;2023-12-04T07:09:01;1.40;99.90
37642;DHT22;23486;51.956;5.888;2023-12-04T07:11:27;1.40;99.90
37642;DHT22;23486;51.956;5.888;2023-12-04T07:13:52;1.40;99.90
37642;DHT22;23486;51.956;5.888;2023-12-04T07:16:18;1.50;99.90
37642;DHT22;23486;51.956;5.888;2023-12-04T07:18:43;1.50;99.90
37642;DHT22;23486;51.956;5.888;2023-12-04T07:21:09;1.40;99.90
37642;DHT22;23486;51.956;5.888;2023-12-04T07:23:35;1.40;99.90
37642;DHT22;23486;51.956;5.888;2023-12-04T07:26:00;1.50;99.90
37642;DHT22;23486;51.956;5.888;2023-12-04T07:28:26;1.50;99.90
37642;DHT22;23486;51.956;5.888;2023-12-04T07:30:53;1.50;99.90
37642;DHT22;23486;51.956;5.888;2023-12-04T07:33:19;1.40;99.90
37642;DHT22;23486;51.956;5.888;2023-12-04T07:35:44;1.50;99.90
37642;DHT22;23486;51.956;5.888;2023-12-04T07:38:10;1.40;99.90
37642;DHT22;23486;51.956;5.888;2023-12-04T07:40:35;1.40;99.90
37642;DHT22;23486;51.956;5.888;2023-12-04T07:43:01;1.40;99.90
37642;DHT22;23486;51.956;5.888;2023-12-04T07:45:27;1.40;99.90
37642;DHT22;23486;51.956;5.888;2023-12-04T07:47:53;1.50;99.90
37642;DHT22;23486;51.956;5.888;2023-12-04T07:50:19;1.50;99.90
37642;DHT22;23486;51.956;5.888;2023-12-04T07:52:44;1.50;99.90
37642;DHT22;23486;51.956;5.888;2023-12-04T07:55:10;1.50;99.90
37642;DHT22;23486;51.956;5.888;2023-12-04T07:57:35;1.50;99.90
37642;DHT22;23486;51.956;5.888;2023-12-04T08:00:01;1.60;99.90
37642;DHT22;23486;51.956;5.888;2023-12-04T08:02:27;1.60;99.90
37642;DHT22;23486;51.956;5.888;2023-12-04T08:04:53;1.60;99.90
37642;DHT22;23486;51.956;5.888;2023-12-04T08:07:19;1.60;99.90
37642;DHT22;23486;51.956;5.888;2023-12-04T08:09:44;1.60;99.90
37642;DHT22;23486;51.956;5.888;2023-12-04T08:12:10;1.60;99.90
37642;DHT22;23486;51.956;5.888;2023-12-04T08:14:36;1.70;99.90
37642;DHT22;23486;51.956;5.888;2023-12-04T08:17:01;1.70;99.90
37642;DHT22;23486;51.956;5.888;2023-12-04T08:19:27;1.70;99.90
37642;DHT22;23486;51.956;5.888;2023-12-04T08:21:53;1.70;99.90
37642;DHT22;23486;51.956;5.888;2023-12-04T08:24:18;1.70;99.90
37642;DHT22;23486;51.956;5.888;2023-12-04T08:26:47;1.70;99.90
37642;DHT22;23486;51.956;5.888;2023-12-04T08:29:13;1.80;99.90
37642;DHT22;23486;51.956;5.888;2023-12-04T08:31:38;1.80;99.90
37642;DHT22;23486;51.956;5.888;2023-12-04T08:34:04;1.80;99.90
37642;DHT22;23486;51.956;5.888;2023-12-04T08:36:29;1.80;99.90
37642;DHT22;23486;51.956;5.888;2023-12-04T08:38:55;1.80;99.90
37642;DHT22;23486;51.956;5.888;2023-12-04T08:41:21;1.80;99.90
37642;DHT22;23486;51.956;5.888;2023-12-04T08:43:46;1.80;99.90
37642;DHT22;23486;51.956;5.888;2023-12-04T08:46:15;1.80;99.90
37642;DHT22;23486;51.956;5.888;2023-12-04T08:48:41;1.90;99.90
37642;DHT22;23486;51.956;5.888;2023-12-04T08:51:07;1.90;99.90
37642;DHT22;23486;51.956;5.888;2023-12-04T08:53:34;1.90;99.90
37642;DHT22;23486;51.956;5.888;2023-12-04T08:56:00;1.90;99.90
37642;DHT22;23486;51.956;5.888;2023-12-04T08:58:25;1.90;99.90
37642;DHT22;23486;51.956;5.888;2023-12-04T09:00:51;2.00;99.90
37642;DHT22;23486;51.956;5.888;2023-12-04T09:03:16;2.00;99.90
37642;DHT22;23486;51.956;5.888;2023-12-04T09:05:42;1.90;99.90
37642;DHT22;23486;51.956;5.888;2023-12-04T09:08:08;2.00;99.90
37642;DHT22;23486;51.956;5.888;2023-12-04T09:10:33;2.00;99.90
37642;DHT22;23486;51.956;5.888;2023-12-04T09:12:59;2.10;99.90
37642;DHT22;23486;51.956;5.888;2023-12-04T09:15:25;2.10;99.90
37642;DHT22;23486;51.956;5.888;2023-12-04T09:17:50;2.10;99.90
37642;DHT22;23486;51.956;5.888;2023-12-04T09:20:16;2.10;99.90
37642;DHT22;23486;51.956;5.888;2023-12-04T09:22:41;2.10;99.90
37642;DHT22;23486;51.956;5.888;2023-12-04T09:25:07;2.10;99.90
37642;DHT22;23486;51.956;5.888;2023-12-04T09:27:34;2.20;99.90
37642;DHT22;23486;51.956;5.888;2023-12-04T09:30:00;2.20;99.90
37642;DHT22;23486;51.956;5.888;2023-12-04T09:32:26;2.20;99.90
37642;DHT22;23486;51.956;5.888;2023-12-04T09:34:51;2.20;99.90
37642;DHT22;23486;51.956;5.888;2023-12-04T09:37:18;2.20;99.90
37642;DHT22;23486;51.956;5.888;2023-12-04T09:39:44;2.30;99.90
37642;DHT22;23486;51.956;5.888;2023-12-04T09:42:09;2.30;99.90
37642;DHT22;23486;51.956;5.888;2023-12-04T09:44:37;2.40;99.90
37642;DHT22;23486;51.956;5.888;2023-12-04T09:47:03;2.40;99.90
37642;DHT22;23486;51.956;5.888;2023-12-04T09:49:31;2.40;99.90
37642;DHT22;23486;51.956;5.888;2023-12-04T09:52:00;2.50;99.90
37642;DHT22;23486;51.956;5.888;2023-12-04T09:54:28;2.50;99.90
37642;DHT22;23486;51.956;5.888;2023-12-04T09:56:55;2.50;99.90
37642;DHT22;23486;51.956;5.888;2023-12-04T09:59:23;2.50;99.90
37642;DHT22;23486;51.956;5.888;2023-12-04T10:01:51;2.50;99.90
37642;DHT22;23486;51.956;5.888;2023-12-04T10:04:16;2.60;99.90
37642;DHT22;23486;51.956;5.888;2023-12-04T10:06:43;2.60;99.90
37642;DHT22;23486;51.956;5.888;2023-12-04T10:09:09;2.60;99.90
37642;DHT22;23486;51.956;5.888;2023-12-04T10:11:40;2.70;99.90
37642;DHT22;23486;51.956;5.888;2023-12-04T10:14:16;2.70;99.90
37642;DHT22;23486;51.956;5.888;2023-12-04T10:16:42;2.80;99.90
37642;DHT22;23486;51.956;5.888;2023-12-04T10:19:21;2.80;99.90
37642;DHT22;23486;51.956;5.888;2023-12-04T10:21:49;2.80;99.90
37642;DHT22;23486;51.956;5.888;2023-12-04T10:24:32;2.80;99.90
37642;DHT22;23486;51.956;5.888;2023-12-04T10:26:59;2.90;99.90
37642;DHT22;23486;51.956;5.888;2023-12-04T10:29:29;2.90;99.90
37642;DHT22;23486;51.956;5.888;2023-12-04T10:32:04;2.90;99.90
37642;DHT22;23486;51.956;5.888;2023-12-04T10:34:30;2.90;99.90
37642;DHT22;23486;51.956;5.888;2023-12-04T10:36:59;2.90;99.90
37642;DHT22;23486;51.956;5.888;2023-12-04T10:39:25;3.00;99.90
37642;DHT22;23486;51.956;5.888;2023-12-04T10:42:03;3.00;99.90
37642;DHT22;23486;51.956;5.888;2023-12-04T10:44:31;3.10;99.90
37642;DHT22;23486;51.956;5.888;2023-12-04T10:46:59;3.10;99.90
37642;DHT22;23486;51.956;5.888;2023-12-04T10:49:27;3.10;99.90
37642;DHT22;23486;51.956;5.888;2023-12-04T10:51:56;3.10;99.90
37642;DHT22;23486;51.956;5.888;2023-12-04T10:54:25;3.10;99.90
37642;DHT22;23486;51.956;5.888;2023-12-04T10:56:52;3.10;99.90
37642;DHT22;23486;51.956;5.888;2023-12-04T10:59:27;3.10;99.90
37642;DHT22;23486;51.956;5.888;2023-12-04T11:01:55;3.10;99.90
37642;DHT22;23486;51.956;5.888;2023-12-04T11:04:26;3.20;99.90
37642;DHT22;23486;51.956;5.888;2023-12-04T11:06:54;3.10;99.90
37642;DHT22;23486;51.956;5.888;2023-12-04T11:09:21;3.20;99.90
37642;DHT22;23486;51.956;5.888;2023-12-04T11:11:51;3.30;99.90
37642;DHT22;23486;51.956;5.888;2023-12-04T11:14:22;3.30;99.90
37642;DHT22;23486;51.956;5.888;2023-12-04T11:16:53;3.30;99.90
37642;DHT22;23486;51.956;5.888;2023-12-04T11:20:11;3.30;99.90
37642;DHT22;23486;51.956;5.888;2023-12-04T11:22:39;3.30;99.90
37642;DHT22;23486;51.956;5.888;2023-12-04T11:25:06;3.30;99.90
37642;DHT22;23486;51.956;5.888;2023-12-04T11:27:34;3.30;99.90
37642;DHT22;23486;51.956;5.888;2023-12-04T11:30:01;3.40;99.90
37642;DHT22;23486;51.956;5.888;2023-12-04T11:32:28;3.40;99.90
37642;DHT22;23486;51.956;5.888;2023-12-04T11:34:55;3.40;99.90
37642;DHT22;23486;51.956;5.888;2023-12-04T11:37:24;3.40;99.90
37642;DHT22;23486;51.956;5.888;2023-12-04T11:39:50;3.40;99.90
37642;DHT22;23486;51.956;5.888;2023-12-04T11:42:23;3.40;99.90
37642;DHT22;23486;51.956;5.888;2023-12-04T11:44:53;3.40;99.90
37642;DHT22;23486;51.956;5.888;2023-12-04T11:47:21;3.40;99.90
37642;DHT22;23486;51.956;5.888;2023-12-04T11:49:46;3.40;99.90
37642;DHT22;23486;51.956;5.888;2023-12-04T11:52:12;3.40;99.90
37642;DHT22;23486;51.956;5.888;2023-12-04T11:54:58;3.40;99.90
37642;DHT22;23486;51.956;5.888;2023-12-04T11:57:25;3.40;99.90
37642;DHT22;23486;51.956;5.888;2023-12-04T11:59:52;3.40;99.90
37642;DHT22;23486;51.956;5.888;2023-12-04T12:02:17;3.40;99.90
37642;DHT22;23486;51.956;5.888;2023-12-04T12:04:43;3.40;99.90
37642;DHT22;23486;51.956;5.888;2023-12-04T12:07:11;3.40;99.90
37642;DHT22;23486;51.956;5.888;2023-12-04T12:09:37;3.50;99.90
37642;DHT22;23486;51.956;5.888;2023-12-04T12:12:03;3.50;99.90
37642;DHT22;23486;51.956;5.888;2023-12-04T12:14:30;3.50;99.90
37642;DHT22;23486;51.956;5.888;2023-12-04T12:16:59;3.40;99.90
37642;DHT22;23486;51.956;5.888;2023-12-04T12:19:25;3.40;99.90
37642;DHT22;23486;51.956;5.888;2023-12-04T12:21:50;3.40;99.90
37642;DHT22;23486;51.956;5.888;2023-12-04T12:24:20;3.40;99.90
37642;DHT22;23486;51.956;5.888;2023-12-04T12:26:46;3.40;99.90
37642;DHT22;23486;51.956;5.888;2023-12-04T12:29:12;3.40;99.90
37642;DHT22;23486;51.956;5.888;2023-12-04T12:31:37;3.40;99.90
37642;DHT22;23486;51.956;5.888;2023-12-04T12:34:03;3.40;99.90
37642;DHT22;23486;51.956;5.888;2023-12-04T12:36:29;3.40;99.90
37642;DHT22;23486;51.956;5.888;2023-12-04T12:38:59;3.40;99.90
37642;DHT22;23486;51.956;5.888;2023-12-04T12:41:25;3.40;99.90
37642;DHT22;23486;51.956;5.888;2023-12-04T12:43:52;3.50;99.90
37642;DHT22;23486;51.956;5.888;2023-12-04T12:46:18;3.40;99.90
37642;DHT22;23486;51.956;5.888;2023-12-04T12:48:44;3.40;99.90
37642;DHT22;23486;51.956;5.888;2023-12-04T12:51:12;3.40;99.90
37642;DHT22;23486;51.956;5.888;2023-12-04T12:53:38;3.40;99.90
37642;DHT22;23486;51.956;5.888;2023-12-04T12:56:04;3.40;99.90
37642;DHT22;23486;51.956;5.888;2023-12-04T12:58:31;3.40;99.90
37642;DHT22;23486;51.956;5.888;2023-12-04T13:00:56;3.50;99.90
37642;DHT22;23486;51.956;5.888;2023-12-04T13:03:22;3.50;99.90
37642;DHT22;23486;51.956;5.888;2023-12-04T13:05:48;3.50;99.90
37642;DHT22;23486;51.956;5.888;2023-12-04T13:08:14;3.50;99.90
37642;DHT22;23486;51.956;5.888;2023-12-04T13:10:43;3.60;99.90
37642;DHT22;23486;51.956;5.888;2023-12-04T13:13:12;3.60;99.90
37642;DHT22;23486;51.956;5.888;2023-12-04T13:15:38;3.60;99.90
37642;DHT22;23486;51.956;5.888;2023-12-04T13:18:04;3.60;99.90
37642;DHT22;23486;51.956;5.888;2023-12-04T13:20:30;3.60;99.90
37642;DHT22;23486;51.956;5.888;2023-12-04T13:22:55;3.60;99.90
37642;DHT22;23486;51.956;5.888;2023-12-04T13:25:21;3.60;99.90
37642;DHT22;23486;51.956;5.888;2023-12-04T13:27:48;3.60;99.90
37642;DHT22;23486;51.956;5.888;2023-12-04T13:30:14;3.60;99.90
37642;DHT22;23486;51.956;5.888;2023-12-04T13:32:39;3.60;99.90
37642;DHT22;23486;51.956;5.888;2023-12-04T13:35:05;3.60;99.90
37642;DHT22;23486;51.956;5.888;2023-12-04T13:37:32;3.50;99.90
37642;DHT22;23486;51.956;5.888;2023-12-04T13:39:58;3.60;99.90
37642;DHT22;23486;51.956;5.888;2023-12-04T13:42:27;3.50;99.90
37642;DHT22;23486;51.956;5.888;2023-12-04T13:45:11;3.60;99.90
37642;DHT22;23486;51.956;5.888;2023-12-04T13:47:38;3.60;99.90
37642;DHT22;23486;51.956;5.888;2023-12-04T13:50:05;3.50;99.90
37642;DHT22;23486;51.956;5.888;2023-12-04T13:52:31;3.50;99.90
37642;DHT22;23486;51.956;5.888;2023-12-04T13:54:59;3.60;99.90
37642;DHT22;23486;51.956;5.888;2023-12-04T13:57:25;3.60;99.90
37642;DHT22;23486;51.956;5.888;2023-12-04T14:00:01;3.60;99.90
37642;DHT22;23486;51.956;5.888;2023-12-04T14:02:27;3.60;99.90
37642;DHT22;23486;51.956;5.888;2023-12-04T14:04:53;3.50;99.90
37642;DHT22;23486;51.956;5.888;2023-12-04T14:07:18;3.50;99.90
37642;DHT22;23486;51.956;5.888;2023-12-04T14:09:44;3.50;99.90
37642;DHT22;23486;51.956;5.888;2023-12-04T14:12:10;3.50;99.90
37642;DHT22;23486;51.956;5.888;2023-12-04T14:14:36;3.50;99.90
37642;DHT22;23486;51.956;5.888;2023-12-04T14:17:05;3.50;99.90
37642;DHT22;23486;51.956;5.888;2023-12-04T14:19:33;3.40;99.90
37642;DHT22;23486;51.956;5.888;2023-12-04T14:21:58;3.40;99.90
37642;DHT22;23486;51.956;5.888;2023-12-04T14:24:24;3.30;99.90
37642;DHT22;23486;51.956;5.888;2023-12-04T14:26:50;3.30;99.90
37642;DHT22;23486;51.956;5.888;2023-12-04T14:29:16;3.30;99.90
37642;DHT22;23486;51.956;5.888;2023-12-04T14:31:42;3.30;99.90
37642;DHT22;23486;51.956;5.888;2023-12-04T14:34:07;3.30;99.90
37642;DHT22;23486;51.956;5.888;2023-12-04T14:36:33;3.30;99.90
37642;DHT22;23486;51.956;5.888;2023-12-04T14:38:59;3.30;99.90
37642;DHT22;23486;51.956;5.888;2023-12-04T14:41:24;3.30;99.90
37642;DHT22;23486;51.956;5.888;2023-12-04T14:43:51;3.30;99.90
37642;DHT22;23486;51.956;5.888;2023-12-04T14:46:16;3.30;99.90
37642;DHT22;23486;51.956;5.888;2023-12-04T14:48:42;3.30;99.90
37642;DHT22;23486;51.956;5.888;2023-12-04T14:51:08;3.30;99.90
37642;DHT22;23486;51.956;5.888;2023-12-04T14:53:40;3.30;99.90
37642;DHT22;23486;51.956;5.888;2023-12-04T14:56:12;3.20;99.90
37642;DHT22;23486;51.956;5.888;2023-12-04T14:58:40;3.20;99.90
37642;DHT22;23486;51.956;5.888;2023-12-04T15:01:09;3.20;99.90
37642;DHT22;23486;51.956;5.888;2023-12-04T15:03:47;3.20;99.90
37642;DHT22;23486;51.956;5.888;2023-12-04T15:06:31;3.20;99.90
37642;DHT22;23486;51.956;5.888;2023-12-04T15:09:06;3.10;99.90
37642;DHT22;23486;51.956;5.888;2023-12-04T15:11:41;3.20;99.90
37642;DHT22;23486;51.956;5.888;2023-12-04T15:14:07;3.20;99.90
37642;DHT22;23486;51.956;5.888;2023-12-04T15:17:02;3.20;99.90
37642;DHT22;23486;51.956;5.888;2023-12-04T15:19:43;3.20;99.90
37642;DHT22;23486;51.956;5.888;2023-12-04T15:22:27;3.20;99.90
37642;DHT22;23486;51.956;5.888;2023-12-04T15:24:53;3.10;99.90
37642;DHT22;23486;51.956;5.888;2023-12-04T15:27:18;3.10;99.90
37642;DHT22;23486;51.956;5.888;2023-12-04T15:29:45;3.20;99.90
37642;DHT22;23486;51.956;5.888;2023-12-04T15:32:10;3.10;99.90
37642;DHT22;23486;51.956;5.888;2023-12-04T15:34:36;3.10;99.90
37642;DHT22;23486;51.956;5.888;2023-12-04T15:37:01;3.10;99.90
37642;DHT22;23486;51.956;5.888;2023-12-04T15:39:27;3.10;99.90
37642;DHT22;23486;51.956;5.888;2023-12-04T15:41:53;3.10;99.90